Terminal Aerodrome Forecast
Issued by NWS

Home | Current Version | Previous Version | Text Only | Print | Product List | Glossary On
Versions: 1 2 3 4 5 6 7 8 9 10 11 12 13 14 15 16 17 18 19 20 21 22
000
FTUS41 KBGM 181739
TAFELM
TAF
KELM 181739Z 1818/1918 28008KT P6SM BKN035
     FM182200 23004KT P6SM SCT250
     FM190300 14004KT P6SM SCT250
     FM191200 19007KT P6SM BKN100
     FM191500 19008KT P6SM -SHRA BKN040 OVC100=

USA.gov is the U.S. government's official web portal to all federal, state and local government web resources and services.